Quito, Ecuador

4:36 PM ECT on February 14, 2016 (GMT -0500)
Yanahuaico | | Change Station
CLOSE
Current Station
Personal Weather Station
Location: Quito, PICHINCHA
Elevation: 8504 ft
Nearby Weather Stations

Elev 8504 ft 0.36 °S, 78.50 °W | Updated 54 seconds ago

Scattered Clouds
Scattered Clouds
72.6 °F
Feels Like 77 °F
N
1.0
Wind Variable Wind from South
Gusts 2.0 mph

Today
High -- | Low -- °F
--% Chance of Precip.
Yesterday
High -- | Low -- °F
Precip. -- in
Pressure 30.27 in
Visibility 6.2 miles
Clouds Mostly Cloudy 3000 ft
Scattered Clouds 4000 ft
Heat Index 77 °F
Dew Point 50 °F
Humidity 45%
Rainfall 0.00 in
Snow Depth Not available.
6:24 AM 6:31 PM
Waxing Crescent, 45% visible
METAR SELT 142100Z 17017KT 9999 BKN030 SCT040 18/10 Q1025
Pressure 30.27 in
Visibility 6.2 miles
Clouds Mostly Cloudy 3000 ft
Scattered Clouds 4000 ft
Heat Index 77 °F
Dew Point 50 °F
Humidity 45%
Rainfall 0.00 in
Snow Depth Not available.
6:24 AM 6:31 PM
Waxing Crescent, 45% visible
METAR SELT 142100Z 17017KT 9999 BKN030 SCT040 18/10 Q1025

10-Day Weather Forecast

No radar image for this location.
×

Almanac

Astronomy

Feb. 14, 2016 Rise Set
Actual Time
Civil Twilight
Nautical Twilight
Astronomical Twilight
Moon
Length of Visible Light
Length of Day
Tomorrow will be .
, % of the Moon is Illuminated

Today's Extremes

Country Highs Country Lows

Community

WunderPhotos

Upload Photos

1,892,890 photos uploaded!

WunderBlog® & News

Nearby

Air Quality

  Air Quality AQ Index Pollutant
Not available.

Snow Depth

Station Depth Elevation

Earthquake Activity

City Distance Mag. Time & Date
Minimum magnitude displayed is 2.5.

Coastal Water Temperatures

Place Temperature

Stations

Nearby Weather Stations

Station Location Temp. Windchill Dew Point Humidity Wind Precip. Elev Updated Type